Terminal Aerodrome Forecast
Issued by NWS Melbourne, FL

Home | Current Version | Previous Version | Text Only | Print | Product List | Glossary On
Versions: 1 2 3 4 5 6 7 8 9 10 11 12 13 14 15 16 17 18 19 20 21 22
452
FTUS42 KMLB 061141
TAFMCO
TAF
KMCO 061141Z 0612/0712 18008KT P6SM SCT010 BKN020 BKN070
      WS020/21035KT
      TEMPO 0612/0614 BKN010
     FM061500 20017G25KT P6SM VCSH SCT020 BKN040
      TEMPO 0615/0617 3SM TSRA BKN030CB
     FM062200 25010KT P6SM BKN050
     FM070300 26006KT P6SM SCT025=

USA.gov is the U.S. government's official web portal to all federal, state and local government web resources and services.